Terminal Aerodrome Forecast
Issued by NWS Louisville, KY

Home | Current Version | Previous Version | Text Only | Print | Product List | Glossary On
Versions: 1 2 3 4 5 6 7 8 9 10 11 12 13 14 15 16 17 18 19 20 21 22 23
000
FTUS43 KLMK 161559 AAA
TAFLEX
TAF AMD
KLEX 161559Z 1616/1712 18005KT P6SM VCSH BKN040
      TEMPO 1616/1618 3SM +SHRA BR BKN035
     FM161800 20005KT P6SM VCTS BKN040CB
     FM170000 VRB03KT P6SM BKN150
     FM170900 VRB03KT 4SM BR SCT150=

USA.gov is the U.S. government's official web portal to all federal, state and local government web resources and services.